Time;durP1;ratioP1;P1;durP2;ratioP2;P2;SDS_P1;SDS_P2;PMS_P1;PMS_P2;Temp;Humidity;BMP_temperature;BMP_pressure;BME280_temperature;BME280_humidity;BME280_pressure;Samples;Min_cycle;Max_cycle;Signal;HPM_P1;HPM_P2
2022/06/05 00:02:01;;;;;;;;;;;24.70;46.50;;;;;;4129491;28;19976;-55
2022/06/05 00:04:11;;;;;;;;;;;24.90;46.20;;;;;;4131069;28;20410;-49
2022/06/05 00:06:22;;;;;;;;;;;25.10;45.90;;;;;;4125487;28;19975;-51
2022/06/05 00:08:26;;;;;;;;;;;25.30;45.80;;;;;;4109511;28;19929;-45
2022/06/05 00:10:39;;;;;;;;;;;25.50;45.40;;;;;;4116125;28;19936;-49
2022/06/05 00:12:41;;;;;;;;;;;25.60;45.20;;;;;;4117593;28;20451;-50
2022/06/05 00:14:43;;;;;;;;;;;25.80;45.00;;;;;;4119047;28;19971;-49
2022/06/05 00:16:45;;;;;;;;;;;25.90;44.90;;;;;;4129017;28;19929;-53
2022/06/05 00:18:46;;;;;;;;;;;26.10;44.70;;;;;;4118755;28;19935;-51
2022/06/05 00:20:48;;;;;;;;;;;26.20;44.40;;;;;;4122299;28;20696;-46
2022/06/05 00:22:50;;;;;;;;;;;26.40;44.20;;;;;;4133431;28;19935;-46
2022/06/05 00:24:51;;;;;;;;;;;26.50;44.00;;;;;;4132006;28;19970;-50
2022/06/05 00:26:57;;;;;;;;;;;26.70;44.00;;;;;;4123225;28;19924;-46
2022/06/05 00:29:01;;;;;;;;;;;26.80;43.90;;;;;;4130079;28;20505;-45
2022/06/05 00:31:05;;;;;;;;;;;26.90;43.50;;;;;;4132495;28;19940;-50
2022/06/05 00:33:13;;;;;;;;;;;27.10;43.50;;;;;;4128944;28;19955;-46
2022/06/05 00:35:17;;;;;;;;;;;27.20;43.30;;;;;;4123789;28;19979;-48
2022/06/05 00:37:23;;;;;;;;;;;27.30;43.20;;;;;;4127793;28;19924;-49
2022/06/05 00:39:29;;;;;;;;;;;27.50;43.10;;;;;;4124512;28;19928;-45
2022/06/05 00:41:37;;;;;;;;;;;27.60;42.70;;;;;;4139008;28;19928;-51
2022/06/05 00:43:38;;;;;;;;;;;27.80;42.70;;;;;;4124120;28;20154;-46
2022/06/05 00:45:40;;;;;;;;;;;27.80;42.50;;;;;;4124097;28;19952;-49
2022/06/05 00:47:43;;;;;;;;;;;27.90;42.40;;;;;;4128061;28;20251;-47
2022/06/05 00:49:45;;;;;;;;;;;28.00;42.20;;;;;;4114460;28;20841;-45
2022/06/05 00:51:46;;;;;;;;;;;28.20;42.20;;;;;;4123153;28;20392;-47
2022/06/05 00:53:49;;;;;;;;;;;28.30;42.00;;;;;;4127005;28;19978;-48
2022/06/05 00:55:51;;;;;;;;;;;28.40;42.10;;;;;;4111935;28;19929;-47
2022/06/05 00:57:53;;;;;;;;;;;28.50;42.00;;;;;;4106933;28;19925;-52
2022/06/05 00:59:56;;;;;;;;;;;28.60;42.00;;;;;;4124648;28;19928;-45
2022/06/05 01:01:58;;;;;;;;;;;28.70;42.00;;;;;;4129904;28;20246;-49
2022/06/05 01:04:01;;;;;;;;;;;28.70;42.00;;;;;;4107904;28;19975;-49
2022/06/05 01:06:03;;;;;;;;;;;28.40;42.30;;;;;;4118275;28;20012;-48
2022/06/05 01:08:05;;;;;;;;;;;28.10;42.80;;;;;;4128555;28;19967;-47
2022/06/05 01:10:08;;;;;;;;;;;28.00;43.00;;;;;;4130507;28;19966;-49
2022/06/05 01:12:27;;;;;;;;;;;28.10;43.00;;;;;;4122673;28;19936;-53
2022/06/05 01:14:51;;;;;;;;;;;27.80;43.00;;;;;;4116507;28;20645;-54
2022/06/05 01:17:00;;;;;;;;;;;27.70;43.50;;;;;;4119100;28;19932;-45
2022/06/05 01:19:19;;;;;;;;;;;27.60;43.50;;;;;;4102733;28;19952;-51
2022/06/05 01:21:21;;;;;;;;;;;27.40;43.30;;;;;;4112496;28;19925;-50
2022/06/05 01:23:35;;;;;;;;;;;27.40;43.50;;;;;;4123787;28;20322;-49
2022/06/05 01:25:39;;;;;;;;;;;27.20;43.00;;;;;;4123100;28;20023;-46
2022/06/05 01:27:44;;;;;;;;;;;27.10;43.30;;;;;;4105080;28;20388;-48
2022/06/05 01:29:49;;;;;;;;;;;27.00;43.10;;;;;;4104714;28;20016;-49
2022/06/05 01:32:03;;;;;;;;;;;26.90;43.30;;;;;;4113105;28;20337;-46
2022/06/05 01:34:15;;;;;;;;;;;26.70;43.50;;;;;;4111244;28;19935;-49
2022/06/05 01:36:22;;;;;;;;;;;26.50;43.90;;;;;;4110991;28;19924;-46
2022/06/05 01:38:42;;;;;;;;;;;26.20;44.10;;;;;;4118530;28;19929;-45
2022/06/05 01:40:47;;;;;;;;;;;26.10;44.50;;;;;;4103156;28;19928;-45
2022/06/05 01:42:57;;;;;;;;;;;25.80;44.60;;;;;;4114912;28;19924;-47
2022/06/05 01:45:06;;;;;;;;;;;25.70;45.00;;;;;;4118854;28;19929;-47
2022/06/05 01:47:11;;;;;;;;;;;25.50;45.20;;;;;;4121029;28;20077;-47
2022/06/05 01:49:18;;;;;;;;;;;25.40;45.50;;;;;;4116045;28;19929;-46
2022/06/05 01:51:29;;;;;;;;;;;25.20;45.80;;;;;;4098678;28;20536;-45
2022/06/05 01:53:36;;;;;;;;;;;25.10;46.00;;;;;;4112433;28;19964;-50
2022/06/05 01:55:38;;;;;;;;;;;25.00;46.20;;;;;;4114987;28;19995;-48
2022/06/05 01:57:39;;;;;;;;;;;24.80;46.20;;;;;;4107831;28;20389;-44
2022/06/05 01:59:44;;;;;;;;;;;24.70;46.50;;;;;;4125719;28;19929;-45
2022/06/05 02:01:47;;;;;;;;;;;24.60;46.60;;;;;;4114260;28;19964;-45
2022/06/05 02:03:53;;;;;;;;;;;24.50;46.70;;;;;;4116295;28;19936;-48
2022/06/05 02:05:58;;;;;;;;;;;24.40;46.80;;;;;;4120615;28;20489;-47
2022/06/05 02:08:03;;;;;;;;;;;24.30;46.90;;;;;;4126723;28;19988;-51
2022/06/05 02:10:10;;;;;;;;;;;24.20;47.20;;;;;;4117415;28;20837;-50
2022/06/05 02:12:11;;;;;;;;;;;24.10;47.30;;;;;;4112985;28;20480;-48
2022/06/05 02:14:13;;;;;;;;;;;24.00;47.40;;;;;;4117392;28;20368;-49
2022/06/05 02:16:15;;;;;;;;;;;23.90;47.60;;;;;;4122224;28;19928;-47
2022/06/05 02:18:16;;;;;;;;;;;23.80;47.70;;;;;;4115063;28;19935;-51
2022/06/05 02:20:18;;;;;;;;;;;23.70;47.70;;;;;;4116917;28;19983;-45
2022/06/05 02:22:29;;;;;;;;;;;23.60;48.00;;;;;;4126720;28;20709;-46
2022/06/05 02:24:30;;;;;;;;;;;23.60;48.20;;;;;;4123122;28;19987;-42
2022/06/05 02:26:32;;;;;;;;;;;23.50;48.40;;;;;;4119158;28;21182;-45
2022/06/05 02:28:35;;;;;;;;;;;23.40;48.50;;;;;;4086860;28;20402;-43
2022/06/05 02:30:45;;;;;;;;;;;23.30;48.60;;;;;;4119277;28;20346;-45
2022/06/05 02:32:57;;;;;;;;;;;23.30;48.90;;;;;;4123432;28;19929;-49
2022/06/05 02:35:02;;;;;;;;;;;23.20;49.00;;;;;;4121292;28;19929;-46
2022/06/05 02:37:06;;;;;;;;;;;23.20;49.20;;;;;;4089732;28;19970;-43
2022/06/05 02:39:26;;;;;;;;;;;23.10;49.30;;;;;;4096935;28;19924;-44
2022/06/05 02:41:48;;;;;;;;;;;23.10;49.40;;;;;;4110691;28;20645;-46
2022/06/05 02:46:28;;;;;;;;;;;22.90;49.40;;;;;;4112649;28;19928;-48
2022/06/05 02:48:33;;;;;;;;;;;22.90;49.40;;;;;;4114278;28;19925;-47
2022/06/05 02:50:38;;;;;;;;;;;22.80;49.50;;;;;;4113642;28;19940;-43
2022/06/05 02:52:41;;;;;;;;;;;22.70;49.60;;;;;;4121482;28;19932;-46
2022/06/05 02:54:55;;;;;;;;;;;22.70;49.70;;;;;;4097065;28;20409;-48
2022/06/05 02:56:57;;;;;;;;;;;22.60;49.90;;;;;;4117162;28;20404;-47
2022/06/05 02:59:00;;;;;;;;;;;22.60;49.90;;;;;;4111704;28;19933;-44
2022/06/05 03:03:27;;;;;;;;;;;22.50;50.00;;;;;;4117453;28;21334;-49
2022/06/05 03:05:29;;;;;;;;;;;22.50;50.20;;;;;;4113227;28;19982;-46
2022/06/05 03:07:30;;;;;;;;;;;22.40;50.30;;;;;;4123174;28;20323;-51
2022/06/05 03:09:33;;;;;;;;;;;22.30;50.30;;;;;;4115255;28;19928;-47
2022/06/05 03:11:35;;;;;;;;;;;22.30;50.40;;;;;;4117342;28;19931;-48
2022/06/05 03:13:36;;;;;;;;;;;22.30;50.50;;;;;;4126253;28;20370;-44
2022/06/05 03:15:38;;;;;;;;;;;22.30;52.00;;;;;;4124353;28;20142;-47
2022/06/05 03:17:40;;;;;;;;;;;22.20;50.70;;;;;;4124051;28;20382;-50
2022/06/05 03:19:43;;;;;;;;;;;22.20;50.70;;;;;;4132052;28;19928;-48
2022/06/05 03:21:44;;;;;;;;;;;22.20;50.50;;;;;;4136169;28;20237;-50
2022/06/05 03:23:46;;;;;;;;;;;22.10;50.70;;;;;;4129988;28;20325;-45
2022/06/05 03:25:48;;;;;;;;;;;22.10;50.90;;;;;;4127760;28;19924;-47
2022/06/05 03:27:49;;;;;;;;;;;22.10;51.30;;;;;;4130472;28;19928;-50
2022/06/05 03:29:51;;;;;;;;;;;22.10;51.20;;;;;;4122710;28;20421;-49
2022/06/05 03:31:53;;;;;;;;;;;22.00;51.30;;;;;;4115996;28;20520;-51
2022/06/05 03:33:54;;;;;;;;;;;22.00;51.40;;;;;;4147562;28;19977;-49
2022/06/05 03:35:56;;;;;;;;;;;22.00;51.40;;;;;;4121985;28;19936;-46
2022/06/05 03:37:58;;;;;;;;;;;21.90;51.60;;;;;;4126020;28;20015;-53
2022/06/05 03:39:59;;;;;;;;;;;21.90;51.70;;;;;;4127295;28;20031;-49
2022/06/05 03:42:01;;;;;;;;;;;21.90;51.80;;;;;;4127750;28;20591;-51
2022/06/05 03:44:02;;;;;;;;;;;21.80;51.80;;;;;;4122740;28;20019;-49
2022/06/05 03:46:05;;;;;;;;;;;21.80;52.00;;;;;;4136367;28;20504;-53
2022/06/05 03:48:07;;;;;;;;;;;21.80;52.20;;;;;;4111106;28;20443;-49
2022/06/05 03:50:10;;;;;;;;;;;21.70;52.10;;;;;;4122942;28;20369;-52
2022/06/05 03:52:12;;;;;;;;;;;21.70;52.10;;;;;;4113435;28;19932;-52
2022/06/05 03:54:14;;;;;;;;;;;21.60;52.20;;;;;;4133493;28;21033;-48
2022/06/05 03:56:17;;;;;;;;;;;21.70;52.30;;;;;;4125852;28;19942;-45
2022/06/05 03:58:19;;;;;;;;;;;21.60;52.30;;;;;;4122515;28;20448;-46
2022/06/05 04:00:21;;;;;;;;;;;21.60;52.50;;;;;;4127164;28;20450;-45
2022/06/05 04:02:25;;;;;;;;;;;21.60;52.50;;;;;;4120657;28;20950;-49
2022/06/05 04:04:26;;;;;;;;;;;21.60;52.50;;;;;;4120515;28;20883;-51
2022/06/05 04:06:29;;;;;;;;;;;21.50;52.60;;;;;;4128016;28;20371;-45
2022/06/05 04:08:31;;;;;;;;;;;21.50;52.50;;;;;;4130415;28;20071;-48
2022/06/05 04:10:33;;;;;;;;;;;21.50;52.60;;;;;;4118845;28;20029;-48
2022/06/05 04:12:34;;;;;;;;;;;21.40;52.50;;;;;;4124993;28;19932;-50
2022/06/05 04:14:36;;;;;;;;;;;21.40;52.60;;;;;;4130659;28;20481;-49
2022/06/05 04:16:39;;;;;;;;;;;21.40;52.60;;;;;;4108629;28;19936;-52
2022/06/05 04:18:41;;;;;;;;;;;21.40;52.70;;;;;;4111430;28;19928;-46
2022/06/05 04:20:42;;;;;;;;;;;21.40;52.70;;;;;;4130190;28;19928;-50
2022/06/05 04:22:44;;;;;;;;;;;21.40;52.80;;;;;;4123181;28;19972;-53
2022/06/05 04:24:46;;;;;;;;;;;21.40;52.90;;;;;;4119506;28;21218;-47
2022/06/05 04:26:47;;;;;;;;;;;21.30;52.80;;;;;;4131276;28;20491;-51
2022/06/05 04:28:49;;;;;;;;;;;21.30;53.70;;;;;;4121031;28;19928;-50
2022/06/05 04:30:51;;;;;;;;;;;21.30;53.10;;;;;;4124450;28;20002;-49
2022/06/05 04:32:52;;;;;;;;;;;21.20;53.00;;;;;;4096701;28;19933;-49
2022/06/05 04:34:54;;;;;;;;;;;21.20;53.10;;;;;;4123268;28;20062;-50
2022/06/05 04:36:55;;;;;;;;;;;21.20;53.70;;;;;;4125455;28;19955;-51
2022/06/05 04:38:57;;;;;;;;;;;21.20;53.10;;;;;;4135774;28;20450;-52
2022/06/05 04:40:58;;;;;;;;;;;21.20;53.70;;;;;;4124189;28;20355;-47
2022/06/05 04:43:00;;;;;;;;;;;21.10;53.20;;;;;;4118703;28;20741;-51
2022/06/05 04:45:01;;;;;;;;;;;21.10;53.40;;;;;;4126324;28;20271;-49
2022/06/05 04:47:03;;;;;;;;;;;21.10;53.50;;;;;;4124472;28;20594;-48
2022/06/05 04:49:08;;;;;;;;;;;21.10;53.70;;;;;;4119911;28;20022;-50
2022/06/05 04:51:12;;;;;;;;;;;21.10;53.70;;;;;;4116738;28;19928;-48
2022/06/05 04:53:14;;;;;;;;;;;21.00;53.70;;;;;;4122276;28;20230;-45
2022/06/05 04:55:16;;;;;;;;;;;21.00;53.00;;;;;;4120042;28;20127;-46
2022/06/05 04:57:17;;;;;;;;;;;21.00;52.80;;;;;;4119746;28;19959;-52
2022/06/05 04:59:19;;;;;;;;;;;20.90;52.90;;;;;;4124421;28;20349;-50
2022/06/05 05:01:23;;;;;;;;;;;20.90;53.10;;;;;;4118324;28;20086;-49
2022/06/05 05:03:24;;;;;;;;;;;20.90;53.30;;;;;;4114463;28;20613;-50
2022/06/05 05:05:26;;;;;;;;;;;20.90;53.70;;;;;;4107361;28;20036;-46
2022/06/05 05:07:28;;;;;;;;;;;20.80;53.70;;;;;;4122994;28;19929;-49
2022/06/05 05:09:30;;;;;;;;;;;20.80;54.30;;;;;;4111090;28;19929;-45
2022/06/05 05:11:32;;;;;;;;;;;20.80;53.60;;;;;;4136478;28;19924;-45
2022/06/05 05:13:33;;;;;;;;;;;20.80;53.60;;;;;;4126535;28;20379;-49
2022/06/05 05:15:35;;;;;;;;;;;20.80;53.40;;;;;;4121985;28;20555;-47
2022/06/05 05:17:37;;;;;;;;;;;20.70;53.40;;;;;;4103454;28;19959;-44
2022/06/05 05:19:38;;;;;;;;;;;20.70;53.40;;;;;;4124937;28;19925;-46
2022/06/05 05:21:40;;;;;;;;;;;20.70;53.20;;;;;;4119420;28;19952;-48
2022/06/05 05:23:43;;;;;;;;;;;20.60;53.20;;;;;;4116741;28;19935;-48
2022/06/05 05:25:44;;;;;;;;;;;20.60;53.40;;;;;;4129776;28;19925;-50
2022/06/05 05:27:46;;;;;;;;;;;20.60;53.20;;;;;;4115433;28;20334;-44
2022/06/05 05:29:47;;;;;;;;;;;20.60;53.30;;;;;;4122851;28;19932;-45
2022/06/05 05:31:50;;;;;;;;;;;20.50;54.10;;;;;;4126369;28;20433;-48
2022/06/05 05:33:52;;;;;;;;;;;20.50;54.50;;;;;;4112595;28;19933;-51
2022/06/05 05:35:54;;;;;;;;;;;20.50;55.00;;;;;;4113419;28;20010;-50
2022/06/05 05:37:55;;;;;;;;;;;20.50;55.60;;;;;;4125945;28;20639;-51
2022/06/05 05:42:17;;;;;;;;;;;20.50;55.80;;;;;;4112544;28;20055;-53
2022/06/05 05:44:18;;;;;;;;;;;20.50;55.90;;;;;;4101581;28;20248;-49
2022/06/05 05:46:23;;;;;;;;;;;20.50;55.80;;;;;;4118558;28;19928;-56
2022/06/05 05:48:24;;;;;;;;;;;20.50;55.90;;;;;;4126667;28;20012;-50
2022/06/05 05:50:26;;;;;;;;;;;20.50;55.80;;;;;;4131575;28;19935;-49
2022/06/05 05:52:28;;;;;;;;;;;20.50;56.00;;;;;;4121337;28;20075;-47
2022/06/05 05:54:30;;;;;;;;;;;20.50;56.10;;;;;;4124098;28;20008;-53
2022/06/05 05:56:35;;;;;;;;;;;20.50;55.90;;;;;;4106673;28;20678;-52
2022/06/05 05:58:37;;;;;;;;;;;20.50;56.10;;;;;;4118244;28;21449;-54
2022/06/05 06:00:39;;;;;;;;;;;20.50;55.80;;;;;;4122884;28;19929;-52
2022/06/05 06:02:42;;;;;;;;;;;20.50;55.60;;;;;;4122906;28;19960;-51
2022/06/05 06:04:43;;;;;;;;;;;20.40;55.20;;;;;;4144162;28;22039;-54
2022/06/05 06:06:46;;;;;;;;;;;20.40;55.20;;;;;;4120533;28;20386;-53
2022/06/05 06:08:48;;;;;;;;;;;20.40;55.00;;;;;;4121759;28;19936;-51
2022/06/05 06:10:50;;;;;;;;;;;20.30;54.90;;;;;;4130253;28;20058;-52
2022/06/05 06:12:52;;;;;;;;;;;20.30;54.90;;;;;;4116357;28;20008;-51
2022/06/05 06:14:53;;;;;;;;;;;20.30;54.90;;;;;;4110221;28;19936;-52
2022/06/05 06:16:55;;;;;;;;;;;20.30;55.00;;;;;;4119923;28;20051;-51
2022/06/05 06:18:57;;;;;;;;;;;20.20;55.00;;;;;;4112014;28;19929;-52
2022/06/05 06:20:59;;;;;;;;;;;20.20;54.90;;;;;;4118918;28;20009;-48
2022/06/05 06:23:00;;;;;;;;;;;20.20;55.00;;;;;;4121317;28;19936;-54
2022/06/05 06:25:04;;;;;;;;;;;20.10;55.00;;;;;;4107950;28;20107;-47
2022/06/05 06:27:06;;;;;;;;;;;20.10;55.00;;;;;;4110746;28;20042;-47
2022/06/05 06:29:08;;;;;;;;;;;20.10;55.00;;;;;;4122240;28;20401;-51
2022/06/05 06:31:12;;;;;;;;;;;20.00;55.00;;;;;;4118087;28;21711;-53
2022/06/05 06:33:16;;;;;;;;;;;20.00;55.00;;;;;;4117069;28;21710;-52
2022/06/05 06:35:18;;;;;;;;;;;20.00;55.10;;;;;;4114246;28;19994;-49
2022/06/05 06:37:20;;;;;;;;;;;20.00;55.20;;;;;;4112266;28;20189;-48
2022/06/05 06:39:22;;;;;;;;;;;19.90;55.20;;;;;;4106419;28;20026;-50
2022/06/05 06:41:24;;;;;;;;;;;19.90;55.20;;;;;;4108534;28;20131;-52
2022/06/05 06:43:25;;;;;;;;;;;19.90;55.20;;;;;;4124488;28;19933;-50
2022/06/05 06:45:27;;;;;;;;;;;19.90;55.30;;;;;;4129599;28;21086;-52
2022/06/05 06:47:28;;;;;;;;;;;19.80;55.30;;;;;;4125222;28;19928;-51
2022/06/05 06:49:31;;;;;;;;;;;19.80;55.30;;;;;;4127113;28;19936;-51
2022/06/05 06:51:32;;;;;;;;;;;19.80;55.40;;;;;;4128720;28;19935;-51
2022/06/05 06:53:34;;;;;;;;;;;19.80;55.40;;;;;;4120040;28;19947;-53
2022/06/05 06:55:36;;;;;;;;;;;19.70;55.40;;;;;;4145365;28;19924;-52
2022/06/05 06:57:38;;;;;;;;;;;19.70;55.60;;;;;;4131037;28;19939;-48
2022/06/05 06:59:39;;;;;;;;;;;19.70;55.60;;;;;;4126528;28;20055;-51
2022/06/05 07:01:41;;;;;;;;;;;19.70;55.60;;;;;;4128574;28;19988;-47
2022/06/05 07:03:43;;;;;;;;;;;19.60;55.60;;;;;;4131530;28;20031;-49
2022/06/05 07:05:44;;;;;;;;;;;19.60;55.70;;;;;;4120652;28;20367;-53
2022/06/05 07:07:46;;;;;;;;;;;19.60;55.70;;;;;;4124584;28;19967;-53
2022/06/05 07:09:47;;;;;;;;;;;19.60;55.80;;;;;;4135291;28;19993;-52
2022/06/05 07:11:49;;;;;;;;;;;19.60;55.80;;;;;;4107025;28;20023;-49
2022/06/05 07:13:51;;;;;;;;;;;19.50;55.80;;;;;;4127816;28;20318;-52
2022/06/05 07:15:53;;;;;;;;;;;19.50;55.80;;;;;;4134422;28;19955;-49
2022/06/05 07:17:55;;;;;;;;;;;19.50;55.90;;;;;;4127405;28;20322;-51
2022/06/05 07:19:56;;;;;;;;;;;19.50;55.90;;;;;;4124547;28;20359;-54
2022/06/05 07:21:58;;;;;;;;;;;19.50;56.00;;;;;;4133877;28;19935;-47
2022/06/05 07:24:01;;;;;;;;;;;19.50;56.10;;;;;;4128266;28;19947;-52
2022/06/05 07:26:03;;;;;;;;;;;19.40;56.00;;;;;;4126854;28;19928;-52
2022/06/05 07:28:05;;;;;;;;;;;19.40;56.00;;;;;;4113548;28;20029;-55
2022/06/05 07:30:07;;;;;;;;;;;19.40;56.10;;;;;;4133267;28;20012;-51
2022/06/05 07:32:11;;;;;;;;;;;19.40;56.10;;;;;;4108141;28;20832;-54
2022/06/05 07:34:12;;;;;;;;;;;19.30;56.10;;;;;;4126922;28;19951;-52
2022/06/05 07:36:16;;;;;;;;;;;19.30;56.10;;;;;;4125546;28;20360;-52
2022/06/05 07:38:17;;;;;;;;;;;19.30;56.20;;;;;;4102084;28;20023;-54
2022/06/05 07:40:19;;;;;;;;;;;19.30;56.30;;;;;;4123753;28;19929;-52
2022/06/05 07:42:21;;;;;;;;;;;19.20;56.20;;;;;;4127173;28;20477;-51
2022/06/05 07:44:22;;;;;;;;;;;19.30;56.40;;;;;;4132050;28;20668;-53
2022/06/05 07:46:24;;;;;;;;;;;19.30;56.40;;;;;;4120686;28;19940;-54
2022/06/05 07:48:25;;;;;;;;;;;19.20;56.40;;;;;;4129727;28;19924;-53
2022/06/05 07:50:27;;;;;;;;;;;19.20;56.40;;;;;;4111596;28;20098;-52
2022/06/05 07:54:48;;;;;;;;;;;19.20;56.40;;;;;;4123944;28;19942;-54
2022/06/05 07:56:49;;;;;;;;;;;19.20;56.40;;;;;;4121949;28;19999;-55
2022/06/05 07:58:51;;;;;;;;;;;19.10;56.50;;;;;;4112842;28;20420;-50
2022/06/05 08:00:53;;;;;;;;;;;19.10;56.50;;;;;;4105778;28;20289;-53
2022/06/05 08:02:54;;;;;;;;;;;19.10;56.40;;;;;;4123451;28;19932;-53
2022/06/05 08:04:56;;;;;;;;;;;19.10;56.50;;;;;;4120583;28;20119;-53
2022/06/05 08:06:59;;;;;;;;;;;19.10;56.60;;;;;;4125827;28;21047;-55
2022/06/05 08:09:05;;;;;;;;;;;19.10;56.50;;;;;;4122992;28;21020;-55
2022/06/05 08:13:17;;;;;;;;;;;19.00;56.50;;;;;;4247754;22;19929;-72
2022/06/05 08:15:22;;;;;;;;;;;19.00;56.60;;;;;;4111897;28;19968;-71
2022/06/05 08:17:30;;;;;;;;;;;19.00;56.60;;;;;;4111734;28;21181;-70
2022/06/05 08:19:31;;;;;;;;;;;18.90;56.50;;;;;;4104820;28;20592;-71
2022/06/05 08:21:33;;;;;;;;;;;19.00;56.70;;;;;;4104318;28;20876;-71
2022/06/05 08:23:35;;;;;;;;;;;19.00;56.60;;;;;;4111182;28;19925;-71
2022/06/05 08:25:37;;;;;;;;;;;19.00;56.60;;;;;;4090464;28;19937;-70
2022/06/05 08:27:39;;;;;;;;;;;18.90;56.60;;;;;;4113211;28;20079;-71
2022/06/05 08:29:41;;;;;;;;;;;18.90;56.60;;;;;;4097829;28;20020;-71
2022/06/05 08:31:43;;;;;;;;;;;18.90;56.60;;;;;;4109075;28;19968;-71
2022/06/05 08:33:45;;;;;;;;;;;18.90;56.70;;;;;;4105192;28;19929;-71
2022/06/05 08:35:49;;;;;;;;;;;18.90;56.70;;;;;;4113408;28;19933;-71
2022/06/05 08:42:35;;;;;;;;;;;18.80;56.70;;;;;;4103700;28;20028;-70
2022/06/05 08:44:37;;;;;;;;;;;18.80;56.70;;;;;;4122626;28;20004;-71
2022/06/05 08:46:42;;;;;;;;;;;18.80;56.80;;;;;;4110421;28;19929;-72
2022/06/05 08:49:03;;;;;;;;;;;18.80;56.80;;;;;;4105109;28;20369;-72
2022/06/05 08:51:11;;;;;;;;;;;18.70;56.80;;;;;;4094362;28;20024;-71
2022/06/05 08:53:37;;;;;;;;;;;18.70;56.80;;;;;;4105359;28;19964;-72
2022/06/05 08:55:41;;;;;;;;;;;18.70;56.90;;;;;;4092061;28;19932;-72
2022/06/05 08:57:47;;;;;;;;;;;18.70;56.90;;;;;;4095231;28;20784;-72
2022/06/05 09:00:13;;;;;;;;;;;18.70;56.90;;;;;;4089473;28;19965;-73
2022/06/05 09:02:15;;;;;;;;;;;18.60;57.00;;;;;;4070372;28;19927;-73
2022/06/05 09:04:23;;;;;;;;;;;18.70;57.00;;;;;;4102918;28;20397;-72
2022/06/05 09:06:53;;;;;;;;;;;18.60;57.00;;;;;;4107345;28;19941;-72
2022/06/05 09:08:57;;;;;;;;;;;18.60;57.00;;;;;;4095233;28;19936;-73
2022/06/05 09:11:04;;;;;;;;;;;18.60;57.10;;;;;;4114131;28;20563;-72
2022/06/05 09:13:18;;;;;;;;;;;18.60;57.10;;;;;;4114051;28;19964;-74
2022/06/05 09:15:24;;;;;;;;;;;18.60;57.10;;;;;;4104577;28;19969;-73
2022/06/05 09:17:29;;;;;;;;;;;18.60;57.10;;;;;;4116739;28;19929;-74
2022/06/05 09:19:31;;;;;;;;;;;18.60;57.20;;;;;;4099449;28;19929;-73
2022/06/05 09:21:47;;;;;;;;;;;18.50;57.80;;;;;;4116708;28;19939;-73
2022/06/05 09:24:04;;;;;;;;;;;18.50;57.10;;;;;;4099088;28;19941;-73
2022/06/05 09:26:13;;;;;;;;;;;18.50;57.20;;;;;;4116367;28;19996;-73
2022/06/05 09:28:18;;;;;;;;;;;18.50;57.20;;;;;;4115541;28;19929;-72
2022/06/05 09:30:22;;;;;;;;;;;18.50;57.30;;;;;;4116503;28;19925;-73
2022/06/05 09:32:30;;;;;;;;;;;18.40;57.30;;;;;;4119105;28;20004;-72
2022/06/05 09:34:34;;;;;;;;;;;18.40;57.20;;;;;;4102069;28;19996;-73
2022/06/05 09:36:38;;;;;;;;;;;18.40;57.20;;;;;;4096551;28;19965;-73
2022/06/05 09:38:40;;;;;;;;;;;18.40;57.20;;;;;;4117313;28;19995;-72
2022/06/05 09:40:57;;;;;;;;;;;18.40;57.30;;;;;;4119640;28;19929;-72
2022/06/05 09:42:59;;;;;;;;;;;18.40;57.30;;;;;;4103917;28;19975;-73
2022/06/05 09:45:01;;;;;;;;;;;18.40;57.40;;;;;;4104215;28;19930;-73
2022/06/05 09:47:04;;;;;;;;;;;18.30;57.20;;;;;;4103524;28;19930;-73
2022/06/05 09:49:09;;;;;;;;;;;18.30;57.30;;;;;;4102572;28;19925;-73
2022/06/05 09:51:12;;;;;;;;;;;18.30;57.30;;;;;;4107924;28;20537;-73
2022/06/05 09:53:17;;;;;;;;;;;18.30;57.20;;;;;;4116152;28;20019;-74
2022/06/05 09:55:20;;;;;;;;;;;18.30;57.90;;;;;;4116805;28;20461;-73
2022/06/05 09:59:50;;;;;;;;;;;18.20;57.40;;;;;;4117499;28;19935;-72
2022/06/05 10:01:56;;;;;;;;;;;18.30;57.50;;;;;;4115286;28;19925;-73
2022/06/05 10:03:58;;;;;;;;;;;18.30;57.40;;;;;;4102212;28;20001;-68
2022/06/05 10:06:17;;;;;;;;;;;18.20;57.40;;;;;;4121559;28;19948;-69
2022/06/05 10:08:19;;;;;;;;;;;18.20;57.30;;;;;;4119616;28;19925;-72
2022/06/05 10:10:26;;;;;;;;;;;18.20;57.40;;;;;;4105151;28;20784;-69
2022/06/05 10:12:32;;;;;;;;;;;18.20;57.40;;;;;;4114675;28;20314;-68
2022/06/05 10:14:36;;;;;;;;;;;18.20;57.40;;;;;;4113415;28;20275;-70
2022/06/05 10:16:45;;;;;;;;;;;18.20;57.40;;;;;;4115743;28;19936;-70
2022/06/05 10:18:47;;;;;;;;;;;18.20;57.40;;;;;;4101762;28;19938;-69
2022/06/05 10:20:49;;;;;;;;;;;18.10;57.30;;;;;;4104329;28;21065;-69
2022/06/05 10:23:09;;;;;;;;;;;18.10;57.40;;;;;;4114637;28;20330;-70
2022/06/05 10:25:29;;;;;;;;;;;18.10;57.40;;;;;;4100476;28;19929;-69
2022/06/05 10:27:31;;;;;;;;;;;18.10;57.40;;;;;;4122163;28;19929;-68
2022/06/05 10:29:35;;;;;;;;;;;18.10;57.30;;;;;;4117792;28;19976;-69
2022/06/05 10:31:40;;;;;;;;;;;18.10;57.30;;;;;;4099786;28;19925;-70
2022/06/05 10:33:57;;;;;;;;;;;18.10;57.40;;;;;;4101150;28;19929;-70
2022/06/05 10:36:01;;;;;;;;;;;18.10;57.30;;;;;;4100305;28;19930;-68
2022/06/05 10:38:21;;;;;;;;;;;18.10;57.30;;;;;;4118522;28;20096;-71
2022/06/05 10:40:41;;;;;;;;;;;18.00;57.20;;;;;;4099525;28;20409;-72
2022/06/05 10:42:52;;;;;;;;;;;18.00;57.30;;;;;;4114603;28;20227;-72
2022/06/05 10:44:59;;;;;;;;;;;18.00;57.40;;;;;;4099309;28;19926;-72
2022/06/05 10:47:16;;;;;;;;;;;18.00;57.20;;;;;;4115067;28;19964;-69
2022/06/05 10:49:46;;;;;;;;;;;18.00;57.40;;;;;;4111999;28;19924;-68
2022/06/05 10:51:58;;;;;;;;;;;18.00;57.40;;;;;;4104101;28;20535;-70
2022/06/05 10:54:06;;;;;;;;;;;18.00;57.40;;;;;;4119782;28;20403;-71
2022/06/05 10:56:12;;;;;;;;;;;17.90;57.20;;;;;;4121040;28;20064;-70
2022/06/05 10:58:17;;;;;;;;;;;17.90;57.40;;;;;;4116607;28;19929;-70
2022/06/05 11:00:25;;;;;;;;;;;17.90;57.40;;;;;;4113194;28;19925;-70
2022/06/05 11:02:33;;;;;;;;;;;17.90;57.30;;;;;;4095921;28;19998;-69
2022/06/05 11:04:53;;;;;;;;;;;17.90;57.20;;;;;;4118909;28;19930;-70
2022/06/05 11:07:13;;;;;;;;;;;17.90;57.30;;;;;;4082961;28;19930;-69
2022/06/05 11:09:32;;;;;;;;;;;17.80;57.40;;;;;;4097423;28;21926;-70
2022/06/05 11:14:13;;;;;;;;;;;17.80;57.40;;;;;;4112395;28;19925;-70
2022/06/05 11:16:18;;;;;;;;;;;17.80;57.40;;;;;;4096438;28;20003;-70
2022/06/05 11:18:35;;;;;;;;;;;17.80;57.40;;;;;;4112666;28;20265;-70
2022/06/05 11:20:40;;;;;;;;;;;17.80;57.80;;;;;;4096634;28;19937;-71
2022/06/05 11:22:46;;;;;;;;;;;17.80;57.50;;;;;;4100027;28;20043;-70
2022/06/05 11:24:49;;;;;;;;;;;17.70;57.40;;;;;;4118457;28;19929;-71
2022/06/05 11:26:58;;;;;;;;;;;17.70;57.40;;;;;;4097395;28;21425;-70
2022/06/05 11:29:06;;;;;;;;;;;17.70;57.40;;;;;;4112268;28;19925;-70
2022/06/05 11:31:13;;;;;;;;;;;17.70;57.40;;;;;;4113911;28;20190;-70
2022/06/05 11:33:20;;;;;;;;;;;17.60;57.30;;;;;;4113200;28;20720;-71
2022/06/05 11:35:24;;;;;;;;;;;17.70;57.40;;;;;;4115636;28;19936;-71
2022/06/05 11:37:44;;;;;;;;;;;17.60;57.30;;;;;;4104988;28;19930;-70
2022/06/05 11:40:04;;;;;;;;;;;17.60;57.40;;;;;;4114824;28;19976;-71
2022/06/05 11:42:14;;;;;;;;;;;17.70;57.40;;;;;;4113785;28;20527;-70
2022/06/05 11:44:30;;;;;;;;;;;17.60;57.50;;;;;;4110435;28;20856;-71
2022/06/05 11:46:35;;;;;;;;;;;17.60;57.40;;;;;;4097083;28;19936;-70
2022/06/05 11:48:36;;;;;;;;;;;17.60;57.40;;;;;;4112217;28;20066;-71
2022/06/05 11:50:47;;;;;;;;;;;17.60;57.40;;;;;;4123810;28;20043;-70
2022/06/05 11:52:54;;;;;;;;;;;17.60;57.30;;;;;;4118441;28;19935;-70
2022/06/05 11:54:59;;;;;;;;;;;17.60;57.40;;;;;;4113386;28;19936;-70
2022/06/05 11:57:21;;;;;;;;;;;17.50;57.40;;;;;;4097610;28;19941;-70
2022/06/05 11:59:28;;;;;;;;;;;17.50;57.40;;;;;;4098572;28;19930;-71
2022/06/05 12:01:32;;;;;;;;;;;17.50;57.50;;;;;;4095863;28;21606;-71
2022/06/05 12:03:40;;;;;;;;;;;17.50;57.50;;;;;;4113114;28;20007;-71
2022/06/05 12:05:48;;;;;;;;;;;17.50;57.40;;;;;;4097281;28;20009;-71
2022/06/05 12:07:50;;;;;;;;;;;17.50;57.50;;;;;;4117319;28;19925;-71
2022/06/05 12:09:57;;;;;;;;;;;17.50;57.60;;;;;;4100515;28;19933;-71
2022/06/05 12:12:04;;;;;;;;;;;17.50;57.50;;;;;;4097120;28;20245;-72
2022/06/05 12:14:43;;;;;;;;;;;17.40;57.40;;;;;;4088506;28;19925;-71
2022/06/05 12:17:05;;;;;;;;;;;17.40;57.50;;;;;;4094945;28;19933;-72
2022/06/05 12:19:13;;;;;;;;;;;17.40;57.60;;;;;;4079679;28;19929;-72
2022/06/05 12:21:19;;;;;;;;;;;17.40;57.40;;;;;;4068439;28;20114;-71
2022/06/05 12:23:26;;;;;;;;;;;17.40;57.50;;;;;;4090748;28;20370;-71
2022/06/05 12:25:35;;;;;;;;;;;17.40;57.50;;;;;;4093032;28;20027;-72
2022/06/05 12:27:42;;;;;;;;;;;17.40;57.60;;;;;;4098476;28;19926;-71
2022/06/05 12:29:43;;;;;;;;;;;17.30;57.50;;;;;;4095715;28;19971;-71